Laverock, Pennsylvania
Current Conditions -  °F | °C
As of 3:55 PM on Thursday 18 Dec 2014 (Local Time) from KLOM Reporting Station
Broken Clouds Broken Clouds  
Wind Chill: 31°   Ceiling: 3700
Heat Index: 37°   Visibility: 10mi
Dew Point: 27°   Wind: 8mph
Humidity: 65%   Direction: 300°WNW
Pressure: 30.01"   Gusts: 17mph
Location:  40.1012°N, 75.1722°W
Report Text: KLOM 182055Z AUTO 30007G15KT 10SM BKN037 03/M03 A3001 RMK AO1
Loading
Personal Weather Stations






























Interactive Weather Map New forecast layout! Learn more

10-Day Weather Forecast

Advertisements
Track Severe Weather on mobile